sensor_id;sensor_type;location;lat;lon;timestamp;temperature;humidity
20795;DHT22;28087;-33.874;151.240;2023-04-01T00:00:31;21.70;73.20
20795;DHT22;28087;-33.874;151.240;2023-04-01T00:03:06;21.60;73.60
20795;DHT22;28087;-33.874;151.240;2023-04-01T00:05:40;21.50;74.40
20795;DHT22;28087;-33.874;151.240;2023-04-01T00:08:14;21.40;74.80
20795;DHT22;28087;-33.874;151.240;2023-04-01T00:10:49;21.10;75.00
20795;DHT22;28087;-33.874;151.240;2023-04-01T00:13:26;20.90;75.40
20795;DHT22;28087;-33.874;151.240;2023-04-01T00:16:00;20.80;75.80
20795;DHT22;28087;-33.874;151.240;2023-04-01T00:18:49;20.70;75.90
20795;DHT22;28087;-33.874;151.240;2023-04-01T00:21:23;20.50;76.50
20795;DHT22;28087;-33.874;151.240;2023-04-01T00:23:59;20.50;76.60
20795;DHT22;28087;-33.874;151.240;2023-04-01T00:26:33;20.60;76.60
20795;DHT22;28087;-33.874;151.240;2023-04-01T00:29:09;20.70;76.40
20795;DHT22;28087;-33.874;151.240;2023-04-01T00:31:42;20.40;76.70
20795;DHT22;28087;-33.874;151.240;2023-04-01T00:34:17;20.40;77.00
20795;DHT22;28087;-33.874;151.240;2023-04-01T00:36:51;20.50;77.20
20795;DHT22;28087;-33.874;151.240;2023-04-01T00:39:28;20.40;77.60
20795;DHT22;28087;-33.874;151.240;2023-04-01T00:42:02;20.20;77.90
20795;DHT22;28087;-33.874;151.240;2023-04-01T00:44:39;20.10;78.00
20795;DHT22;28087;-33.874;151.240;2023-04-01T00:47:14;20.10;78.60
20795;DHT22;28087;-33.874;151.240;2023-04-01T00:49:49;20.20;78.30
20795;DHT22;28087;-33.874;151.240;2023-04-01T00:52:24;20.30;78.70
20795;DHT22;28087;-33.874;151.240;2023-04-01T00:55:01;20.20;78.30
20795;DHT22;28087;-33.874;151.240;2023-04-01T00:57:36;20.10;78.40
20795;DHT22;28087;-33.874;151.240;2023-04-01T01:00:13;20.20;78.20
20795;DHT22;28087;-33.874;151.240;2023-04-01T01:02:49;20.20;77.90
20795;DHT22;28087;-33.874;151.240;2023-04-01T01:05:28;20.30;78.20
20795;DHT22;28087;-33.874;151.240;2023-04-01T01:08:17;20.20;78.10
20795;DHT22;28087;-33.874;151.240;2023-04-01T01:10:55;20.20;78.10
20795;DHT22;28087;-33.874;151.240;2023-04-01T01:13:30;20.00;78.40
20795;DHT22;28087;-33.874;151.240;2023-04-01T01:16:11;19.90;78.30
20795;DHT22;28087;-33.874;151.240;2023-04-01T01:18:48;20.00;78.70
20795;DHT22;28087;-33.874;151.240;2023-04-01T01:27:13;19.70;78.90
20795;DHT22;28087;-33.874;151.240;2023-04-01T01:30:02;19.60;79.30
20795;DHT22;28087;-33.874;151.240;2023-04-01T01:32:43;19.80;79.60
20795;DHT22;28087;-33.874;151.240;2023-04-01T01:35:26;19.70;79.60
20795;DHT22;28087;-33.874;151.240;2023-04-01T01:38:05;19.60;79.70
20795;DHT22;28087;-33.874;151.240;2023-04-01T01:40:42;19.60;79.90
20795;DHT22;28087;-33.874;151.240;2023-04-01T01:43:18;19.60;79.90
20795;DHT22;28087;-33.874;151.240;2023-04-01T01:45:54;19.70;79.90
20795;DHT22;28087;-33.874;151.240;2023-04-01T01:48:30;19.70;79.90
20795;DHT22;28087;-33.874;151.240;2023-04-01T01:51:07;19.60;79.30
20795;DHT22;28087;-33.874;151.240;2023-04-01T01:53:42;19.60;79.70
20795;DHT22;28087;-33.874;151.240;2023-04-01T01:56:19;19.60;79.70
20795;DHT22;28087;-33.874;151.240;2023-04-01T01:58:56;19.70;79.90
20795;DHT22;28087;-33.874;151.240;2023-04-01T02:01:32;19.80;79.70
20795;DHT22;28087;-33.874;151.240;2023-04-01T02:04:13;19.80;80.10
20795;DHT22;28087;-33.874;151.240;2023-04-01T02:06:52;19.90;79.90
20795;DHT22;28087;-33.874;151.240;2023-04-01T02:09:28;19.90;79.70
20795;DHT22;28087;-33.874;151.240;2023-04-01T02:12:03;19.90;79.80
20795;DHT22;28087;-33.874;151.240;2023-04-01T02:14:43;20.00;80.00
20795;DHT22;28087;-33.874;151.240;2023-04-01T02:17:22;20.00;80.00
20795;DHT22;28087;-33.874;151.240;2023-04-01T02:19:58;20.00;80.00
20795;DHT22;28087;-33.874;151.240;2023-04-01T02:22:37;20.10;79.90
20795;DHT22;28087;-33.874;151.240;2023-04-01T02:25:13;20.10;79.60
20795;DHT22;28087;-33.874;151.240;2023-04-01T02:27:48;20.20;79.10
20795;DHT22;28087;-33.874;151.240;2023-04-01T02:30:23;20.20;79.10
20795;DHT22;28087;-33.874;151.240;2023-04-01T02:32:59;20.20;79.00
20795;DHT22;28087;-33.874;151.240;2023-04-01T02:35:34;20.00;78.50
20795;DHT22;28087;-33.874;151.240;2023-04-01T02:38:11;19.90;78.90
20795;DHT22;28087;-33.874;151.240;2023-04-01T02:40:47;19.90;79.30
20795;DHT22;28087;-33.874;151.240;2023-04-01T02:43:21;19.80;78.90
20795;DHT22;28087;-33.874;151.240;2023-04-01T02:45:56;19.70;79.50
20795;DHT22;28087;-33.874;151.240;2023-04-01T02:48:31;19.60;79.60
20795;DHT22;28087;-33.874;151.240;2023-04-01T02:51:05;19.70;79.80
20795;DHT22;28087;-33.874;151.240;2023-04-01T02:53:42;19.60;80.00
20795;DHT22;28087;-33.874;151.240;2023-04-01T02:56:16;19.80;79.90
20795;DHT22;28087;-33.874;151.240;2023-04-01T02:58:51;19.80;79.90
20795;DHT22;28087;-33.874;151.240;2023-04-01T03:01:27;19.80;79.90
20795;DHT22;28087;-33.874;151.240;2023-04-01T03:04:01;19.80;79.40
20795;DHT22;28087;-33.874;151.240;2023-04-01T03:06:35;19.90;79.40
20795;DHT22;28087;-33.874;151.240;2023-04-01T03:09:11;19.90;79.00
20795;DHT22;28087;-33.874;151.240;2023-04-01T03:11:46;19.90;79.50
20795;DHT22;28087;-33.874;151.240;2023-04-01T03:14:20;19.90;79.50
20795;DHT22;28087;-33.874;151.240;2023-04-01T03:16:55;19.90;78.90
20795;DHT22;28087;-33.874;151.240;2023-04-01T03:19:30;19.90;79.20
20795;DHT22;28087;-33.874;151.240;2023-04-01T03:22:08;19.90;78.80
20795;DHT22;28087;-33.874;151.240;2023-04-01T03:24:47;19.80;78.80
20795;DHT22;28087;-33.874;151.240;2023-04-01T03:27:20;20.00;78.90
20795;DHT22;28087;-33.874;151.240;2023-04-01T03:29:55;20.00;78.50
20795;DHT22;28087;-33.874;151.240;2023-04-01T03:32:31;20.00;78.80
20795;DHT22;28087;-33.874;151.240;2023-04-01T03:35:05;20.10;78.60
20795;DHT22;28087;-33.874;151.240;2023-04-01T03:37:40;20.20;77.90
20795;DHT22;28087;-33.874;151.240;2023-04-01T03:40:16;20.10;77.30
20795;DHT22;28087;-33.874;151.240;2023-04-01T03:42:51;20.30;77.80
20795;DHT22;28087;-33.874;151.240;2023-04-01T03:45:25;20.20;77.00
20795;DHT22;28087;-33.874;151.240;2023-04-01T03:48:00;20.00;77.30
20795;DHT22;28087;-33.874;151.240;2023-04-01T03:50:34;19.80;77.60
20795;DHT22;28087;-33.874;151.240;2023-04-01T03:53:09;19.80;77.70
20795;DHT22;28087;-33.874;151.240;2023-04-01T03:55:47;20.00;78.00
20795;DHT22;28087;-33.874;151.240;2023-04-01T03:58:22;19.80;78.00
20795;DHT22;28087;-33.874;151.240;2023-04-01T04:00:59;20.10;77.80
20795;DHT22;28087;-33.874;151.240;2023-04-01T04:03:35;20.20;77.00
20795;DHT22;28087;-33.874;151.240;2023-04-01T04:06:11;20.30;76.30
20795;DHT22;28087;-33.874;151.240;2023-04-01T04:08:45;20.20;76.70
20795;DHT22;28087;-33.874;151.240;2023-04-01T04:11:21;20.30;76.80
20795;DHT22;28087;-33.874;151.240;2023-04-01T04:14:01;20.10;76.20
20795;DHT22;28087;-33.874;151.240;2023-04-01T04:16:36;20.10;76.40
20795;DHT22;28087;-33.874;151.240;2023-04-01T04:19:11;20.10;76.50
20795;DHT22;28087;-33.874;151.240;2023-04-01T04:21:45;20.20;76.60
20795;DHT22;28087;-33.874;151.240;2023-04-01T04:24:20;20.20;76.40
20795;DHT22;28087;-33.874;151.240;2023-04-01T04:27:07;20.10;76.40
20795;DHT22;28087;-33.874;151.240;2023-04-01T04:30:06;20.10;76.60
20795;DHT22;28087;-33.874;151.240;2023-04-01T04:32:54;20.10;76.70
20795;DHT22;28087;-33.874;151.240;2023-04-01T04:35:29;20.00;76.50
20795;DHT22;28087;-33.874;151.240;2023-04-01T04:38:04;20.00;76.50
20795;DHT22;28087;-33.874;151.240;2023-04-01T04:40:38;20.10;76.80
20795;DHT22;28087;-33.874;151.240;2023-04-01T04:43:14;20.00;76.60
20795;DHT22;28087;-33.874;151.240;2023-04-01T04:45:51;20.10;76.60
20795;DHT22;28087;-33.874;151.240;2023-04-01T04:48:26;20.00;76.20
20795;DHT22;28087;-33.874;151.240;2023-04-01T04:51:01;20.00;76.60
20795;DHT22;28087;-33.874;151.240;2023-04-01T04:53:35;20.10;76.80
20795;DHT22;28087;-33.874;151.240;2023-04-01T04:56:10;20.00;76.40
20795;DHT22;28087;-33.874;151.240;2023-04-01T04:58:55;20.10;76.30
20795;DHT22;28087;-33.874;151.240;2023-04-01T05:01:41;20.20;75.80
20795;DHT22;28087;-33.874;151.240;2023-04-01T05:04:15;20.20;75.10
20795;DHT22;28087;-33.874;151.240;2023-04-01T05:06:51;20.40;75.00
20795;DHT22;28087;-33.874;151.240;2023-04-01T05:09:24;20.40;74.10
20795;DHT22;28087;-33.874;151.240;2023-04-01T05:12:02;20.30;74.10
20795;DHT22;28087;-33.874;151.240;2023-04-01T05:14:56;20.40;73.10
20795;DHT22;28087;-33.874;151.240;2023-04-01T05:17:31;20.20;73.20
20795;DHT22;28087;-33.874;151.240;2023-04-01T05:20:06;20.30;73.30
20795;DHT22;28087;-33.874;151.240;2023-04-01T05:22:42;20.40;72.00
20795;DHT22;28087;-33.874;151.240;2023-04-01T05:25:16;20.30;72.60
20795;DHT22;28087;-33.874;151.240;2023-04-01T05:27:51;20.40;71.70
20795;DHT22;28087;-33.874;151.240;2023-04-01T05:30:29;20.30;72.20
20795;DHT22;28087;-33.874;151.240;2023-04-01T05:33:32;20.30;72.00
20795;DHT22;28087;-33.874;151.240;2023-04-01T05:36:07;20.40;72.60
20795;DHT22;28087;-33.874;151.240;2023-04-01T05:38:43;20.30;70.10
20795;DHT22;28087;-33.874;151.240;2023-04-01T05:41:20;20.30;71.90
20795;DHT22;28087;-33.874;151.240;2023-04-01T05:43:54;20.40;71.30
20795;DHT22;28087;-33.874;151.240;2023-04-01T05:46:42;20.40;69.70
20795;DHT22;28087;-33.874;151.240;2023-04-01T05:49:26;20.40;70.10
20795;DHT22;28087;-33.874;151.240;2023-04-01T05:52:01;20.40;70.00
20795;DHT22;28087;-33.874;151.240;2023-04-01T05:54:38;20.40;69.80
20795;DHT22;28087;-33.874;151.240;2023-04-01T05:57:15;20.40;67.90
20795;DHT22;28087;-33.874;151.240;2023-04-01T05:59:50;20.20;68.20
20795;DHT22;28087;-33.874;151.240;2023-04-01T06:02:26;20.30;68.10
20795;DHT22;28087;-33.874;151.240;2023-04-01T06:05:02;20.30;68.50
20795;DHT22;28087;-33.874;151.240;2023-04-01T06:07:36;20.40;68.90
20795;DHT22;28087;-33.874;151.240;2023-04-01T06:10:15;20.40;67.20
20795;DHT22;28087;-33.874;151.240;2023-04-01T06:12:54;20.40;66.00
20795;DHT22;28087;-33.874;151.240;2023-04-01T06:15:33;20.50;65.90
20795;DHT22;28087;-33.874;151.240;2023-04-01T06:21:01;20.40;65.00
20795;DHT22;28087;-33.874;151.240;2023-04-01T06:23:54;20.30;64.50
20795;DHT22;28087;-33.874;151.240;2023-04-01T06:26:39;20.40;63.90
20795;DHT22;28087;-33.874;151.240;2023-04-01T06:29:31;20.40;64.50
20795;DHT22;28087;-33.874;151.240;2023-04-01T06:32:17;20.50;64.80
20795;DHT22;28087;-33.874;151.240;2023-04-01T06:37:52;20.50;63.60
20795;DHT22;28087;-33.874;151.240;2023-04-01T06:43:40;20.30;63.80
20795;DHT22;28087;-33.874;151.240;2023-04-01T06:46:38;20.40;64.00
20795;DHT22;28087;-33.874;151.240;2023-04-01T06:49:33;20.50;63.80
20795;DHT22;28087;-33.874;151.240;2023-04-01T06:52:31;20.50;64.10
20795;DHT22;28087;-33.874;151.240;2023-04-01T06:55:32;20.50;64.40
20795;DHT22;28087;-33.874;151.240;2023-04-01T06:58:18;20.70;64.20
20795;DHT22;28087;-33.874;151.240;2023-04-01T07:00:53;20.60;64.20
20795;DHT22;28087;-33.874;151.240;2023-04-01T07:03:29;20.70;63.70
20795;DHT22;28087;-33.874;151.240;2023-04-01T07:06:09;20.60;63.60
20795;DHT22;28087;-33.874;151.240;2023-04-01T07:08:53;20.50;63.00
20795;DHT22;28087;-33.874;151.240;2023-04-01T07:11:38;20.60;63.70
20795;DHT22;28087;-33.874;151.240;2023-04-01T07:14:41;20.50;62.20
20795;DHT22;28087;-33.874;151.240;2023-04-01T07:17:17;20.50;63.10
20795;DHT22;28087;-33.874;151.240;2023-04-01T07:19:56;20.60;63.10
20795;DHT22;28087;-33.874;151.240;2023-04-01T07:22:33;20.50;61.90
20795;DHT22;28087;-33.874;151.240;2023-04-01T07:25:20;20.50;62.30
20795;DHT22;28087;-33.874;151.240;2023-04-01T07:28:16;20.50;62.60
20795;DHT22;28087;-33.874;151.240;2023-04-01T07:31:00;20.50;62.60
20795;DHT22;28087;-33.874;151.240;2023-04-01T07:33:38;20.50;61.50
20795;DHT22;28087;-33.874;151.240;2023-04-01T07:36:14;20.50;61.70
20795;DHT22;28087;-33.874;151.240;2023-04-01T07:38:56;20.50;61.60
20795;DHT22;28087;-33.874;151.240;2023-04-01T07:41:54;20.50;61.60
20795;DHT22;28087;-33.874;151.240;2023-04-01T07:44:37;20.50;61.90
20795;DHT22;28087;-33.874;151.240;2023-04-01T07:47:18;20.50;61.90
20795;DHT22;28087;-33.874;151.240;2023-04-01T07:49:58;20.60;62.40
20795;DHT22;28087;-33.874;151.240;2023-04-01T07:52:38;20.60;61.80
20795;DHT22;28087;-33.874;151.240;2023-04-01T07:55:21;20.60;61.80
20795;DHT22;28087;-33.874;151.240;2023-04-01T07:58:02;20.60;62.70
20795;DHT22;28087;-33.874;151.240;2023-04-01T08:00:51;20.60;62.20
20795;DHT22;28087;-33.874;151.240;2023-04-01T08:03:41;20.60;62.60
20795;DHT22;28087;-33.874;151.240;2023-04-01T08:06:18;20.50;62.90
20795;DHT22;28087;-33.874;151.240;2023-04-01T08:08:56;20.50;62.70
20795;DHT22;28087;-33.874;151.240;2023-04-01T08:11:55;20.60;62.50
20795;DHT22;28087;-33.874;151.240;2023-04-01T08:14:53;20.60;62.80
20795;DHT22;28087;-33.874;151.240;2023-04-01T08:17:52;20.60;62.40
20795;DHT22;28087;-33.874;151.240;2023-04-01T08:20:33;20.60;62.70
20795;DHT22;28087;-33.874;151.240;2023-04-01T08:23:11;20.50;63.00
20795;DHT22;28087;-33.874;151.240;2023-04-01T08:25:48;20.60;63.00
20795;DHT22;28087;-33.874;151.240;2023-04-01T08:28:27;20.70;62.60
20795;DHT22;28087;-33.874;151.240;2023-04-01T08:31:05;20.60;62.40
20795;DHT22;28087;-33.874;151.240;2023-04-01T08:33:47;20.50;62.00
20795;DHT22;28087;-33.874;151.240;2023-04-01T08:36:24;20.60;62.80
20795;DHT22;28087;-33.874;151.240;2023-04-01T08:39:12;20.60;62.80
20795;DHT22;28087;-33.874;151.240;2023-04-01T08:41:56;20.60;63.10
20795;DHT22;28087;-33.874;151.240;2023-04-01T08:45:29;20.50;62.80
20795;DHT22;28087;-33.874;151.240;2023-04-01T08:51:16;20.50;63.10
20795;DHT22;28087;-33.874;151.240;2023-04-01T08:54:08;20.60;63.60
20795;DHT22;28087;-33.874;151.240;2023-04-01T08:56:55;20.80;63.70
20795;DHT22;28087;-33.874;151.240;2023-04-01T09:03:07;20.70;63.50
20795;DHT22;28087;-33.874;151.240;2023-04-01T09:05:54;20.70;63.50
20795;DHT22;28087;-33.874;151.240;2023-04-01T09:08:41;20.60;63.60
20795;DHT22;28087;-33.874;151.240;2023-04-01T09:11:22;20.60;63.50
20795;DHT22;28087;-33.874;151.240;2023-04-01T09:14:12;20.60;63.70
20795;DHT22;28087;-33.874;151.240;2023-04-01T09:20:03;20.60;64.10
20795;DHT22;28087;-33.874;151.240;2023-04-01T09:22:55;20.60;64.20
20795;DHT22;28087;-33.874;151.240;2023-04-01T09:25:56;20.60;64.00
20795;DHT22;28087;-33.874;151.240;2023-04-01T09:28:41;20.60;63.80
20795;DHT22;28087;-33.874;151.240;2023-04-01T09:31:25;20.70;64.20
20795;DHT22;28087;-33.874;151.240;2023-04-01T09:34:34;20.60;64.40
20795;DHT22;28087;-33.874;151.240;2023-04-01T09:37:18;20.60;64.50
20795;DHT22;28087;-33.874;151.240;2023-04-01T09:40:15;20.60;64.60
20795;DHT22;28087;-33.874;151.240;2023-04-01T09:43:12;20.60;64.70
20795;DHT22;28087;-33.874;151.240;2023-04-01T09:45:55;20.50;64.90
20795;DHT22;28087;-33.874;151.240;2023-04-01T09:48:42;20.70;65.00
20795;DHT22;28087;-33.874;151.240;2023-04-01T09:51:23;20.70;65.20
20795;DHT22;28087;-33.874;151.240;2023-04-01T09:54:09;20.60;65.60
20795;DHT22;28087;-33.874;151.240;2023-04-01T09:56:54;20.60;65.60
20795;DHT22;28087;-33.874;151.240;2023-04-01T10:11:37;20.50;65.30
20795;DHT22;28087;-33.874;151.240;2023-04-01T10:14:18;20.40;65.40
20795;DHT22;28087;-33.874;151.240;2023-04-01T10:17:11;20.50;65.40
20795;DHT22;28087;-33.874;151.240;2023-04-01T10:22:43;20.50;66.10
20795;DHT22;28087;-33.874;151.240;2023-04-01T10:25:29;20.40;66.40
20795;DHT22;28087;-33.874;151.240;2023-04-01T10:34:31;20.30;65.60
20795;DHT22;28087;-33.874;151.240;2023-04-01T10:37:11;20.20;65.10
20795;DHT22;28087;-33.874;151.240;2023-04-01T10:40:03;20.20;65.10
20795;DHT22;28087;-33.874;151.240;2023-04-01T10:49:10;20.20;66.00
20795;DHT22;28087;-33.874;151.240;2023-04-01T10:55:00;20.10;66.10
20795;DHT22;28087;-33.874;151.240;2023-04-01T10:58:06;20.10;66.10
20795;DHT22;28087;-33.874;151.240;2023-04-01T11:04:44;19.90;66.00
20795;DHT22;28087;-33.874;151.240;2023-04-01T11:13:39;20.00;66.10
20795;DHT22;28087;-33.874;151.240;2023-04-01T11:19:28;20.00;66.60
20795;DHT22;28087;-33.874;151.240;2023-04-01T11:22:20;19.80;65.80
20795;DHT22;28087;-33.874;151.240;2023-04-01T11:31:08;19.90;65.70
20795;DHT22;28087;-33.874;151.240;2023-04-01T11:33:46;19.80;65.80
20795;DHT22;28087;-33.874;151.240;2023-04-01T11:36:26;19.80;65.80
20795;DHT22;28087;-33.874;151.240;2023-04-01T11:39:12;19.70;65.70
20795;DHT22;28087;-33.874;151.240;2023-04-01T11:42:09;19.70;66.00
20795;DHT22;28087;-33.874;151.240;2023-04-01T11:45:11;19.70;66.50
20795;DHT22;28087;-33.874;151.240;2023-04-01T11:47:54;19.70;66.80
20795;DHT22;28087;-33.874;151.240;2023-04-01T11:50:35;19.60;66.70
20795;DHT22;28087;-33.874;151.240;2023-04-01T11:53:23;19.60;66.70
20795;DHT22;28087;-33.874;151.240;2023-04-01T11:56:02;19.70;67.20
20795;DHT22;28087;-33.874;151.240;2023-04-01T11:58:51;19.60;67.10
20795;DHT22;28087;-33.874;151.240;2023-04-01T12:01:30;19.60;67.60
20795;DHT22;28087;-33.874;151.240;2023-04-01T12:07:09;19.70;67.10
20795;DHT22;28087;-33.874;151.240;2023-04-01T12:09:54;19.60;66.80
20795;DHT22;28087;-33.874;151.240;2023-04-01T12:12:32;19.60;66.20
20795;DHT22;28087;-33.874;151.240;2023-04-01T12:15:23;19.60;66.10
20795;DHT22;28087;-33.874;151.240;2023-04-01T12:18:02;19.50;66.60
20795;DHT22;28087;-33.874;151.240;2023-04-01T12:20:43;19.50;65.80
20795;DHT22;28087;-33.874;151.240;2023-04-01T12:23:28;19.50;66.10
20795;DHT22;28087;-33.874;151.240;2023-04-01T12:26:15;19.60;65.70
20795;DHT22;28087;-33.874;151.240;2023-04-01T12:28:58;19.60;65.60
20795;DHT22;28087;-33.874;151.240;2023-04-01T12:31:39;19.60;66.00
20795;DHT22;28087;-33.874;151.240;2023-04-01T12:34:29;19.60;66.10
20795;DHT22;28087;-33.874;151.240;2023-04-01T12:37:06;19.60;65.80
20795;DHT22;28087;-33.874;151.240;2023-04-01T12:39:58;19.50;65.80
20795;DHT22;28087;-33.874;151.240;2023-04-01T12:42:38;19.50;66.90
20795;DHT22;28087;-33.874;151.240;2023-04-01T12:45:27;19.40;66.60
20795;DHT22;28087;-33.874;151.240;2023-04-01T12:48:24;19.30;66.60
20795;DHT22;28087;-33.874;151.240;2023-04-01T12:53:56;19.50;66.70
20795;DHT22;28087;-33.874;151.240;2023-04-01T12:56:39;19.30;67.10
20795;DHT22;28087;-33.874;151.240;2023-04-01T12:59:24;19.40;67.50
20795;DHT22;28087;-33.874;151.240;2023-04-01T13:02:07;19.50;67.20
20795;DHT22;28087;-33.874;151.240;2023-04-01T13:10:39;19.30;70.70
20795;DHT22;28087;-33.874;151.240;2023-04-01T13:13:21;19.30;71.60
20795;DHT22;28087;-33.874;151.240;2023-04-01T13:15:59;19.30;73.00
20795;DHT22;28087;-33.874;151.240;2023-04-01T13:18:39;19.30;73.10
20795;DHT22;28087;-33.874;151.240;2023-04-01T13:21:15;19.20;73.80
20795;DHT22;28087;-33.874;151.240;2023-04-01T13:23:55;19.10;74.70
20795;DHT22;28087;-33.874;151.240;2023-04-01T13:26:33;19.10;75.40
20795;DHT22;28087;-33.874;151.240;2023-04-01T13:29:13;19.00;76.00
20795;DHT22;28087;-33.874;151.240;2023-04-01T13:31:50;19.10;76.10
20795;DHT22;28087;-33.874;151.240;2023-04-01T13:34:32;19.20;76.10
20795;DHT22;28087;-33.874;151.240;2023-04-01T13:37:13;19.00;76.80
20795;DHT22;28087;-33.874;151.240;2023-04-01T13:40:02;18.80;77.40
20795;DHT22;28087;-33.874;151.240;2023-04-01T13:42:40;18.90;77.50
20795;DHT22;28087;-33.874;151.240;2023-04-01T13:45:19;19.00;77.50
20795;DHT22;28087;-33.874;151.240;2023-04-01T13:56:34;19.00;77.50
20795;DHT22;28087;-33.874;151.240;2023-04-01T13:59:29;19.00;78.10
20795;DHT22;28087;-33.874;151.240;2023-04-01T14:02:13;19.00;77.80
20795;DHT22;28087;-33.874;151.240;2023-04-01T14:04:53;19.10;77.70
20795;DHT22;28087;-33.874;151.240;2023-04-01T14:07:39;19.10;77.80
20795;DHT22;28087;-33.874;151.240;2023-04-01T14:10:20;19.20;77.80
20795;DHT22;28087;-33.874;151.240;2023-04-01T14:12:58;19.30;78.20
20795;DHT22;28087;-33.874;151.240;2023-04-01T14:15:41;19.30;77.90
20795;DHT22;28087;-33.874;151.240;2023-04-01T14:18:26;19.20;78.00
20795;DHT22;28087;-33.874;151.240;2023-04-01T14:21:08;19.30;78.20
20795;DHT22;28087;-33.874;151.240;2023-04-01T14:24:02;19.30;78.30
20795;DHT22;28087;-33.874;151.240;2023-04-01T14:26:54;19.30;78.20
20795;DHT22;28087;-33.874;151.240;2023-04-01T14:29:35;19.30;78.40
20795;DHT22;28087;-33.874;151.240;2023-04-01T14:32:19;19.30;78.50
20795;DHT22;28087;-33.874;151.240;2023-04-01T14:35:05;19.30;78.40
20795;DHT22;28087;-33.874;151.240;2023-04-01T14:37:54;19.40;78.40
20795;DHT22;28087;-33.874;151.240;2023-04-01T14:40:33;19.50;78.60
20795;DHT22;28087;-33.874;151.240;2023-04-01T14:43:32;19.60;78.40
20795;DHT22;28087;-33.874;151.240;2023-04-01T14:49:04;19.50;78.50
20795;DHT22;28087;-33.874;151.240;2023-04-01T14:51:40;19.50;78.50
20795;DHT22;28087;-33.874;151.240;2023-04-01T14:54:17;19.60;78.30
20795;DHT22;28087;-33.874;151.240;2023-04-01T14:57:03;19.60;78.40
20795;DHT22;28087;-33.874;151.240;2023-04-01T14:59:39;19.60;78.60
20795;DHT22;28087;-33.874;151.240;2023-04-01T15:02:16;19.60;78.50
20795;DHT22;28087;-33.874;151.240;2023-04-01T15:04:57;19.50;78.70
20795;DHT22;28087;-33.874;151.240;2023-04-01T15:07:54;19.50;78.90
20795;DHT22;28087;-33.874;151.240;2023-04-01T15:13:23;19.60;78.80
20795;DHT22;28087;-33.874;151.240;2023-04-01T15:16:01;19.50;78.60
20795;DHT22;28087;-33.874;151.240;2023-04-01T15:18:39;19.60;78.30
20795;DHT22;28087;-33.874;151.240;2023-04-01T15:24:10;19.60;78.30
20795;DHT22;28087;-33.874;151.240;2023-04-01T15:30:04;19.50;78.60
20795;DHT22;28087;-33.874;151.240;2023-04-01T15:32:48;19.50;78.50
20795;DHT22;28087;-33.874;151.240;2023-04-01T15:35:29;19.50;78.90
20795;DHT22;28087;-33.874;151.240;2023-04-01T15:38:06;19.40;79.20
20795;DHT22;28087;-33.874;151.240;2023-04-01T15:40:47;19.60;79.40
20795;DHT22;28087;-33.874;151.240;2023-04-01T15:43:27;19.50;79.70
20795;DHT22;28087;-33.874;151.240;2023-04-01T15:46:19;19.50;79.60
20795;DHT22;28087;-33.874;151.240;2023-04-01T15:48:58;19.40;79.60
20795;DHT22;28087;-33.874;151.240;2023-04-01T15:51:41;19.40;79.60
20795;DHT22;28087;-33.874;151.240;2023-04-01T15:54:28;19.30;79.40
20795;DHT22;28087;-33.874;151.240;2023-04-01T15:57:11;19.10;79.80
20795;DHT22;28087;-33.874;151.240;2023-04-01T16:02:43;19.10;80.10
20795;DHT22;28087;-33.874;151.240;2023-04-01T16:05:30;19.10;79.90
20795;DHT22;28087;-33.874;151.240;2023-04-01T16:08:12;19.20;80.10
20795;DHT22;28087;-33.874;151.240;2023-04-01T16:10:54;19.10;80.20
20795;DHT22;28087;-33.874;151.240;2023-04-01T16:13:35;19.20;80.20
20795;DHT22;28087;-33.874;151.240;2023-04-01T16:16:19;19.20;80.20
20795;DHT22;28087;-33.874;151.240;2023-04-01T16:21:48;19.30;80.20
20795;DHT22;28087;-33.874;151.240;2023-04-01T16:24:24;19.20;80.30
20795;DHT22;28087;-33.874;151.240;2023-04-01T16:27:04;19.20;80.30
20795;DHT22;28087;-33.874;151.240;2023-04-01T16:29:46;19.20;80.30
20795;DHT22;28087;-33.874;151.240;2023-04-01T16:32:33;19.10;80.30
20795;DHT22;28087;-33.874;151.240;2023-04-01T16:35:24;19.10;80.30
20795;DHT22;28087;-33.874;151.240;2023-04-01T16:38:00;19.10;80.10
20795;DHT22;28087;-33.874;151.240;2023-04-01T16:40:41;19.10;79.90
20795;DHT22;28087;-33.874;151.240;2023-04-01T16:43:19;19.00;80.20
20795;DHT22;28087;-33.874;151.240;2023-04-01T16:46:12;19.10;79.60
20795;DHT22;28087;-33.874;151.240;2023-04-01T16:48:54;19.10;79.60
20795;DHT22;28087;-33.874;151.240;2023-04-01T16:51:39;19.10;79.60
20795;DHT22;28087;-33.874;151.240;2023-04-01T16:54:17;19.10;79.60
20795;DHT22;28087;-33.874;151.240;2023-04-01T16:56:54;19.10;79.70
20795;DHT22;28087;-33.874;151.240;2023-04-01T16:59:29;19.00;80.00
20795;DHT22;28087;-33.874;151.240;2023-04-01T17:02:12;19.10;79.90
20795;DHT22;28087;-33.874;151.240;2023-04-01T17:04:48;19.00;79.90
20795;DHT22;28087;-33.874;151.240;2023-04-01T17:07:28;19.00;79.80
20795;DHT22;28087;-33.874;151.240;2023-04-01T17:10:15;19.00;79.80
20795;DHT22;28087;-33.874;151.240;2023-04-01T17:12:53;18.80;79.60
20795;DHT22;28087;-33.874;151.240;2023-04-01T17:15:31;18.80;79.60
20795;DHT22;28087;-33.874;151.240;2023-04-01T17:18:09;18.90;79.80
20795;DHT22;28087;-33.874;151.240;2023-04-01T17:20:48;18.80;79.80
20795;DHT22;28087;-33.874;151.240;2023-04-01T17:23:25;18.90;79.80
20795;DHT22;28087;-33.874;151.240;2023-04-01T17:26:10;19.00;79.70
20795;DHT22;28087;-33.874;151.240;2023-04-01T17:28:48;18.80;79.90
20795;DHT22;28087;-33.874;151.240;2023-04-01T17:31:30;18.90;80.10
20795;DHT22;28087;-33.874;151.240;2023-04-01T17:34:15;18.80;80.20
20795;DHT22;28087;-33.874;151.240;2023-04-01T17:36:57;18.90;80.30
20795;DHT22;28087;-33.874;151.240;2023-04-01T17:39:36;19.00;80.30
20795;DHT22;28087;-33.874;151.240;2023-04-01T17:42:14;18.90;80.30
20795;DHT22;28087;-33.874;151.240;2023-04-01T17:44:53;19.00;80.30
20795;DHT22;28087;-33.874;151.240;2023-04-01T17:47:42;18.90;80.30
20795;DHT22;28087;-33.874;151.240;2023-04-01T17:50:24;18.90;80.30
20795;DHT22;28087;-33.874;151.240;2023-04-01T17:53:11;19.00;80.30
20795;DHT22;28087;-33.874;151.240;2023-04-01T17:56:00;19.00;80.30
20795;DHT22;28087;-33.874;151.240;2023-04-01T17:58:39;19.10;80.30
20795;DHT22;28087;-33.874;151.240;2023-04-01T18:01:19;19.20;80.30
20795;DHT22;28087;-33.874;151.240;2023-04-01T18:04:00;19.30;80.30